CheckWX is a tool to help pilots better visualize weather data.  It is not intended as a substitute for an official pre-flight weather briefing.

17:39:59 UTC

SBGW TAF
Guaratinguetá Airport
Guaratinguetá, Brazil
TAF SBGW 240900Z 2412/2424 05007KT 9999 SCT035 TN23/2412Z TX30/2418Z BECMG 2412/2414 14008KT TEMPO 2416/2418 SCT030 FEW035TCU RMK PDJ

Mar-24@
12:00 UTC

Mar-24 @ 12:00 UTC

Mar-25@
00:00 UTC

Mar-25 @ 00:00 UTC

TAF SBGW 240900Z 2412/2424 05007KT 9999 SCT035 TN23/2412Z TX30/2418Z
Wind
  • 050° at 7 KTS
Cloud Levels
  • Scattered at 3,500' AGL

Mar-24@
12:00 UTC

Mar-24 @ 12:00 UTC

Mar-25@
00:00 UTC

Mar-25 @ 00:00 UTC

BECMG 2412/2414 14008KT

Becoming

Becoming Conditions expected by Sun, Mar 24, 2019 @ 14:00 UTC

Wind
  • 140° at 8 KTS
Cloud Levels
  • Scattered at 3,500' AGL

Mar-24@
16:00 UTC

Mar-24 @ 16:00 UTC

Mar-24@
18:00 UTC

Mar-24 @ 18:00 UTC

TEMPO 2416/2418 SCT030 FEW035TCU RMK PDJ

Temporary

Temporary Changes expected for less than half the time period

Cloud Levels
  • Scattered at 3,000' AGL
  • Few at 3,500' AGL